Time;durP1;ratioP1;P1;durP2;ratioP2;P2;SDS_P1;SDS_P2;PMS_P1;PMS_P2;Temp;Humidity;BMP_temperature;BMP_pressure;BME280_temperature;BME280_humidity;BME280_pressure;Samples;Min_cycle;Max_cycle;Signal;HPM_P1;HPM_P2
2021/08/25 00:01:49;;;;;;;6.43;4.50;;;;;;;25.53;100.00;100837.50;4880854;29;20033;-67
2021/08/25 00:04:37;;;;;;;6.55;5.15;;;;;;;25.17;100.00;100832.22;4880520;29;20055;-67
2021/08/25 00:07:26;;;;;;;5.45;4.55;;;;;;;24.99;100.00;100831.78;4881725;29;20430;-67
2021/08/25 00:10:12;;;;;;;9.95;4.60;;;;;;;25.24;100.00;100828.09;4882365;29;20036;-68
2021/08/25 00:12:59;;;;;;;7.03;4.70;;;;;;;25.27;100.00;100819.84;4880055;29;20037;-67
2021/08/25 00:15:45;;;;;;;6.65;4.75;;;;;;;24.89;100.00;100819.19;4880649;29;20064;-68
2021/08/25 00:18:31;;;;;;;5.50;4.78;;;;;;;25.22;100.00;100822.84;4880179;29;20128;-68
2021/08/25 00:21:16;;;;;;;6.28;4.63;;;;;;;25.29;100.00;100813.41;4867568;29;20025;-68
2021/08/25 00:24:02;;;;;;;5.10;4.60;;;;;;;25.30;100.00;100814.25;4879915;29;20049;-68
2021/08/25 00:26:48;;;;;;;6.53;4.80;;;;;;;25.07;100.00;100810.59;4880745;29;20040;-67
2021/08/25 00:29:34;;;;;;;5.70;4.80;;;;;;;24.93;100.00;100815.28;4880302;29;20029;-67
2021/08/25 00:32:20;;;;;;;7.00;4.93;;;;;;;24.76;100.00;100813.03;4879856;29;20366;-67
2021/08/25 00:35:06;;;;;;;7.95;5.25;;;;;;;24.63;100.00;100809.56;4880631;29;20032;-68
2021/08/25 00:37:52;;;;;;;6.53;4.60;;;;;;;24.89;100.00;100813.81;4879755;29;20036;-67
2021/08/25 00:40:38;;;;;;;8.05;5.18;;;;;;;24.61;100.00;100811.47;4881003;29;20112;-66
2021/08/25 00:43:24;;;;;;;5.57;4.80;;;;;;;24.91;100.00;100803.84;4879774;29;20025;-67
2021/08/25 00:46:11;;;;;;;5.35;4.57;;;;;;;24.94;100.00;100801.78;4879854;29;20451;-67
2021/08/25 00:48:57;;;;;;;7.30;5.68;;;;;;;24.89;100.00;100798.59;4879709;29;20071;-67
2021/08/25 00:51:45;;;;;;;12.27;6.72;;;;;;;24.92;100.00;100797.50;4879885;29;20446;-67
2021/08/25 00:54:31;;;;;;;10.07;6.90;;;;;;;24.89;100.00;100800.41;4879763;29;20036;-67
2021/08/25 00:57:16;;;;;;;8.93;5.90;;;;;;;24.54;100.00;100791.41;4879767;29;20029;-67
2021/08/25 01:00:06;;;;;;;6.70;5.40;;;;;;;24.83;100.00;100792.84;4881339;29;20438;-68
2021/08/25 01:02:56;;;;;;;6.82;4.90;;;;;;;24.31;100.00;100786.91;4868075;29;20025;-68
2021/08/25 01:05:42;;;;;;;7.05;5.20;;;;;;;24.34;100.00;100778.66;4880297;29;20077;-68
2021/08/25 01:08:29;;;;;;;6.65;5.25;;;;;;;24.51;100.00;100784.47;4879993;29;20060;-67
2021/08/25 01:11:14;;;;;;;5.85;5.13;;;;;;;24.36;100.00;100776.72;4868030;29;20029;-67
2021/08/25 01:14:01;;;;;;;7.65;5.15;;;;;;;24.83;100.00;100776.75;4882437;29;20039;-67
2021/08/25 01:16:49;;;;;;;5.53;4.88;;;;;;;24.71;100.00;100775.84;4883049;29;20041;-67
2021/08/25 01:20:01;;;;;;;6.00;5.28;;;;;;;24.82;100.00;100780.38;4882703;29;20029;-67
2021/08/25 01:22:46;;;;;;;6.18;4.85;;;;;;;24.80;100.00;100777.00;4884174;29;20038;-67
2021/08/25 01:25:34;;;;;;;7.13;5.25;;;;;;;24.67;100.00;100770.84;4882656;29;20056;-67
2021/08/25 01:28:22;;;;;;;6.50;5.43;;;;;;;24.50;100.00;100771.19;4884778;29;20029;-67
2021/08/25 01:31:08;;;;;;;6.50;4.90;;;;;;;24.72;100.00;100768.66;4882709;29;20105;-67
2021/08/25 01:34:07;;;;;;;7.00;5.50;;;;;;;24.60;100.00;100772.22;4870042;29;20029;-67
2021/08/25 01:36:55;;;;;;;6.18;5.30;;;;;;;24.40;100.00;100765.66;4882498;29;20032;-68
2021/08/25 01:39:40;;;;;;;6.60;5.05;;;;;;;24.52;100.00;100767.44;4883041;29;20124;-67
2021/08/25 01:42:26;;;;;;;6.45;5.50;;;;;;;24.37;100.00;100762.34;4883530;29;20367;-67
2021/08/25 01:45:12;;;;;;;5.93;5.32;;;;;;;24.16;100.00;100761.25;4870440;29;20033;-68
2021/08/25 01:47:58;;;;;;;7.55;5.10;;;;;;;24.14;100.00;100766.69;4882317;29;20454;-68
2021/08/25 01:50:44;;;;;;;6.75;5.10;;;;;;;24.09;100.00;100765.31;4884258;29;20113;-68
2021/08/25 01:53:29;;;;;;;7.53;6.03;;;;;;;23.87;100.00;100768.66;4882349;29;20071;-68
2021/08/25 01:56:15;;;;;;;7.80;5.07;;;;;;;24.21;100.00;100767.13;4870062;29;20061;-67
2021/08/25 01:59:02;;;;;;;7.20;5.30;;;;;;;24.16;100.00;100766.59;4882561;29;20037;-68
2021/08/25 02:01:48;;;;;;;7.07;5.80;;;;;;;24.43;100.00;100772.63;4882055;29;20040;-67
2021/08/25 02:04:34;;;;;;;6.60;5.40;;;;;;;24.28;100.00;100769.25;4882337;29;20029;-67
2021/08/25 02:07:20;;;;;;;9.70;5.20;;;;;;;24.47;100.00;100768.75;4882487;29;20466;-67
2021/08/25 02:10:06;;;;;;;8.50;5.60;;;;;;;24.49;100.00;100766.78;4882189;29;20378;-68
2021/08/25 02:12:52;;;;;;;8.68;5.28;;;;;;;24.26;100.00;100765.81;4881961;29;20036;-67
2021/08/25 02:15:38;;;;;;;7.35;5.55;;;;;;;24.33;100.00;100771.56;4882137;29;20025;-67
2021/08/25 02:18:24;;;;;;;5.95;5.43;;;;;;;24.19;100.00;100766.38;4883448;29;20478;-67
2021/08/25 02:21:09;;;;;;;9.23;5.93;;;;;;;24.61;100.00;100766.78;4884022;29;20471;-67
2021/08/25 02:23:55;;;;;;;7.68;5.40;;;;;;;24.39;100.00;100763.94;4881431;29;20152;-68
2021/08/25 02:26:41;;;;;;;6.18;5.50;;;;;;;24.12;100.00;100754.41;4882221;29;20029;-68
2021/08/25 02:29:27;;;;;;;6.50;4.95;;;;;;;23.87;100.00;100755.25;4869767;29;20493;-67
2021/08/25 02:32:12;;;;;;;12.30;5.25;;;;;;;24.27;100.00;100758.66;4881508;29;20104;-68
2021/08/25 02:34:58;;;;;;;7.57;5.90;;;;;;;24.24;100.00;100754.38;4883412;29;20108;-67
2021/08/25 02:37:44;;;;;;;8.93;6.10;;;;;;;24.43;100.00;100751.19;4882966;29;20025;-67
2021/08/25 02:40:30;;;;;;;16.00;6.57;;;;;;;24.48;100.00;100749.03;4882882;29;20239;-68
2021/08/25 02:43:16;;;;;;;10.70;6.30;;;;;;;24.26;100.00;100752.41;4869318;29;20029;-67
2021/08/25 02:46:03;;;;;;;11.57;6.90;;;;;;;24.20;100.00;100758.25;4881647;29;20033;-67
2021/08/25 02:48:49;;;;;;;8.88;7.60;;;;;;;24.16;100.00;100758.56;4882275;29;20039;-67
2021/08/25 02:51:35;;;;;;;10.47;7.23;;;;;;;23.65;100.00;100762.25;4882028;29;20057;-67
2021/08/25 02:54:20;;;;;;;10.88;7.60;;;;;;;23.50;100.00;100768.69;4881004;29;20363;-68
2021/08/25 02:57:06;;;;;;;10.52;8.15;;;;;;;23.01;100.00;100779.19;4882854;29;20359;-67
2021/08/25 02:59:52;;;;;;;11.65;7.57;;;;;;;22.79;100.00;100793.13;4881103;29;20367;-67
2021/08/25 03:02:37;;;;;;;10.27;6.85;;;;;;;22.89;100.00;100788.88;4883231;29;20384;-67
2021/08/25 03:05:23;;;;;;;16.23;7.18;;;;;;;22.67;100.00;100788.59;4880963;29;20120;-67
2021/08/25 03:08:09;;;;;;;9.80;6.35;;;;;;;22.10;100.00;100794.16;4880100;29;20057;-67
2021/08/25 03:10:55;;;;;;;7.28;5.90;;;;;;;22.53;100.00;100803.81;4869391;29;20098;-67
2021/08/25 03:13:41;;;;;;;8.02;6.50;;;;;;;22.44;100.00;100796.38;4880727;29;20029;-68
2021/08/25 03:16:26;;;;;;;7.82;6.72;;;;;;;22.23;100.00;100805.75;4868679;29;20033;-68
2021/08/25 03:19:12;;;;;;;9.60;6.40;;;;;;;22.52;100.00;100807.44;4882296;29;20032;-67
2021/08/25 03:21:58;;;;;;;7.93;6.18;;;;;;;22.56;100.00;100803.63;4881764;29;20021;-67
2021/08/25 03:24:44;;;;;;;7.57;5.90;;;;;;;22.78;100.00;100802.09;4880506;29;20132;-67
2021/08/25 03:27:29;;;;;;;7.88;5.70;;;;;;;23.07;100.00;100794.81;4880670;29;20048;-67
2021/08/25 03:30:15;;;;;;;7.53;6.15;;;;;;;22.64;100.00;100798.63;4880415;29;20041;-67
2021/08/25 03:33:07;;;;;;;9.02;6.32;;;;;;;22.37;100.00;100798.59;4882339;29;20025;-67
2021/08/25 03:35:53;;;;;;;10.38;6.40;;;;;;;22.86;100.00;100799.78;4881600;29;20041;-67
2021/08/25 03:38:39;;;;;;;9.57;5.93;;;;;;;22.95;100.00;100812.50;4868825;29;20025;-68
2021/08/25 03:41:25;;;;;;;8.05;6.05;;;;;;;23.17;100.00;100810.13;4880758;29;20039;-68
2021/08/25 03:44:10;;;;;;;8.52;5.95;;;;;;;23.26;100.00;100814.00;4881957;29;20059;-67
2021/08/25 03:46:56;;;;;;;9.77;6.15;;;;;;;23.11;100.00;100812.38;4868949;29;20037;-67
2021/08/25 03:49:42;;;;;;;8.43;5.97;;;;;;;23.32;100.00;100814.44;4880336;29;20510;-67
2021/08/25 03:52:28;;;;;;;7.25;5.95;;;;;;;23.44;100.00;100815.44;4880956;29;20148;-67
2021/08/25 03:55:14;;;;;;;7.85;5.63;;;;;;;23.42;100.00;100805.81;4880284;29;20056;-67
2021/08/25 03:57:59;;;;;;;9.30;5.93;;;;;;;23.33;100.00;100820.66;4867675;29;20128;-67
2021/08/25 04:00:45;;;;;;;7.93;5.80;;;;;;;23.50;100.00;100815.00;4881898;29;20059;-67
2021/08/25 04:03:31;;;;;;;7.53;5.45;;;;;;;23.43;100.00;100819.91;4882229;29;20120;-67
2021/08/25 04:06:17;;;;;;;8.38;6.20;;;;;;;23.69;100.00;100822.59;4880210;29;20131;-67
2021/08/25 04:09:04;;;;;;;7.63;5.57;;;;;;;23.72;100.00;100820.59;4880756;29;20044;-68
2021/08/25 04:11:50;;;;;;;8.38;5.90;;;;;;;23.45;100.00;100825.16;4881504;29;20025;-67
2021/08/25 04:14:36;;;;;;;7.15;5.80;;;;;;;23.57;100.00;100829.69;4880661;29;20113;-67
2021/08/25 04:17:21;;;;;;;7.78;5.93;;;;;;;23.94;100.00;100836.88;4881701;29;20033;-67
2021/08/25 04:20:08;;;;;;;6.90;5.72;;;;;;;23.43;100.00;100837.81;4881721;29;20029;-68
2021/08/25 04:22:53;;;;;;;8.77;5.63;;;;;;;23.46;100.00;100832.22;4880170;29;20025;-68
2021/08/25 04:25:41;;;;;;;7.82;5.55;;;;;;;23.33;100.00;100829.56;4881512;29;20053;-68
2021/08/25 04:28:27;;;;;;;7.20;6.05;;;;;;;22.77;100.00;100831.59;4867434;29;20096;-68
2021/08/25 04:31:13;;;;;;;8.45;5.60;;;;;;;22.85;100.00;100835.47;4879895;29;20449;-68
2021/08/25 04:33:59;;;;;;;9.48;6.22;;;;;;;23.65;100.00;100840.69;4879857;29;20120;-67
2021/08/25 04:36:45;;;;;;;7.45;5.88;;;;;;;23.74;100.00;100853.44;4879967;29;20094;-67
2021/08/25 04:39:30;;;;;;;11.02;6.43;;;;;;;23.48;100.00;100856.19;4866884;29;20033;-67
2021/08/25 04:42:16;;;;;;;8.57;6.18;;;;;;;23.23;100.00;100854.34;4879759;29;20040;-67
2021/08/25 04:45:03;;;;;;;8.27;5.93;;;;;;;23.13;100.00;100858.53;4879950;29;20048;-67
2021/08/25 04:47:49;;;;;;;8.43;6.57;;;;;;;23.06;100.00;100870.59;4882636;29;20104;-68
2021/08/25 04:50:34;;;;;;;10.68;6.70;;;;;;;22.93;100.00;100865.22;4883687;29;20105;-67
2021/08/25 04:53:20;;;;;;;24.88;18.70;;;;;;;23.25;100.00;100869.31;4870988;29;20056;-67
2021/08/25 04:56:06;;;;;;;12.18;10.13;;;;;;;23.36;100.00;100856.06;4883082;29;20025;-67
2021/08/25 04:58:52;;;;;;;12.88;6.93;;;;;;;23.09;100.00;100849.88;4883721;29;20465;-67
2021/08/25 05:01:38;;;;;;;9.30;6.75;;;;;;;23.23;100.00;100855.19;4884594;29;20028;-67
2021/08/25 05:04:24;;;;;;;8.90;7.30;;;;;;;23.19;100.00;100863.50;4883664;29;20029;-68
2021/08/25 05:07:09;;;;;;;8.38;6.70;;;;;;;23.34;100.00;100859.81;4882877;29;20175;-67
2021/08/25 05:09:55;;;;;;;9.80;7.05;;;;;;;23.45;100.00;100857.25;4884994;29;20032;-67
2021/08/25 05:12:41;;;;;;;10.02;6.97;;;;;;;23.61;100.00;100852.56;4884645;29;20103;-67
2021/08/25 05:15:27;;;;;;;9.70;7.20;;;;;;;23.33;100.00;100867.00;4870475;29;20375;-67
2021/08/25 05:18:12;;;;;;;8.98;7.15;;;;;;;23.43;100.00;100868.06;4869730;29;20037;-67
2021/08/25 05:20:58;;;;;;;13.45;8.00;;;;;;;23.66;100.00;100869.16;4883869;29;20402;-68
2021/08/25 05:23:45;;;;;;;12.52;7.68;;;;;;;23.50;100.00;100865.00;4883850;29;20057;-67
2021/08/25 05:26:31;;;;;;;10.88;7.70;;;;;;;23.68;100.00;100872.59;4882662;29;20478;-67
2021/08/25 05:29:17;;;;;;;12.60;7.43;;;;;;;23.69;100.00;100884.16;4882953;29;20049;-68
2021/08/25 05:32:03;;;;;;;9.35;7.10;;;;;;;23.64;100.00;100887.16;4882656;29;20025;-68
2021/08/25 05:34:49;;;;;;;11.70;7.47;;;;;;;23.66;100.00;100897.75;4882923;29;20033;-66
2021/08/25 05:37:34;;;;;;;12.10;7.78;;;;;;;23.66;100.00;100898.59;4882539;29;20063;-67
2021/08/25 05:40:20;;;;;;;10.45;7.72;;;;;;;24.05;100.00;100901.22;4882918;29;20101;-67
2021/08/25 05:43:06;;;;;;;16.08;7.78;;;;;;;23.57;100.00;100899.22;4869153;29;20040;-67
2021/08/25 05:45:52;;;;;;;17.05;8.27;;;;;;;23.83;100.00;100889.41;4883018;29;20028;-67
2021/08/25 05:48:37;;;;;;;12.73;8.63;;;;;;;23.05;100.00;100877.78;4869072;29;20044;-67
2021/08/25 05:51:23;;;;;;;15.40;8.55;;;;;;;23.57;100.00;100893.00;4882342;29;20025;-67
2021/08/25 05:54:09;;;;;;;9.60;8.07;;;;;;;23.82;100.00;100885.03;4882201;29;20064;-68
2021/08/25 05:56:55;;;;;;;19.23;7.90;;;;;;;24.18;100.00;100874.47;4882167;29;20047;-67
2021/08/25 05:59:41;;;;;;;15.05;8.73;;;;;;;24.16;100.00;100871.88;4881629;29;20033;-67
2021/08/25 06:02:27;;;;;;;14.93;8.90;;;;;;;24.09;100.00;100870.59;4881996;29;20031;-67
2021/08/25 06:05:13;;;;;;;10.85;8.38;;;;;;;24.00;100.00;100860.56;4869763;29;20106;-67
2021/08/25 06:07:59;;;;;;;11.52;7.95;;;;;;;24.45;100.00;100856.38;4881865;29;20033;-67
2021/08/25 06:10:45;;;;;;;11.65;8.57;;;;;;;24.70;100.00;100859.88;4882032;29;20039;-68
2021/08/25 06:13:31;;;;;;;15.50;8.68;;;;;;;24.23;100.00;100850.88;4881954;29;20029;-66
2021/08/25 06:16:19;;;;;;;10.73;8.85;;;;;;;24.16;100.00;100845.13;4883658;29;20075;-66
2021/08/25 06:19:05;;;;;;;12.10;8.95;;;;;;;24.54;100.00;100842.31;4884601;29;20037;-67
2021/08/25 06:21:51;;;;;;;11.77;9.20;;;;;;;24.41;100.00;100833.47;4882863;29;20025;-68
2021/08/25 06:24:37;;;;;;;15.30;8.80;;;;;;;25.13;100.00;100838.78;4882814;29;20128;-68
2021/08/25 06:27:24;;;;;;;12.93;9.68;;;;;;;25.32;100.00;100844.50;4882588;29;20060;-67
2021/08/25 06:30:14;;;;;;;14.63;9.32;;;;;;;25.26;100.00;100847.59;4881998;29;20116;-67
2021/08/25 06:33:00;;;;;;;12.40;9.32;;;;;;;25.51;100.00;100845.66;4869922;29;20324;-65
2021/08/25 06:35:45;;;;;;;15.75;9.63;;;;;;;25.35;100.00;100838.91;4870166;29;20029;-67
2021/08/25 06:38:34;;;;;;;14.90;9.70;;;;;;;24.64;100.00;100841.59;4882413;29;20475;-66
2021/08/25 06:41:20;;;;;;;17.13;9.95;;;;;;;25.08;100.00;100846.31;4881964;29;20033;-66
2021/08/25 06:44:06;;;;;;;18.83;10.00;;;;;;;25.32;100.00;100849.88;4881208;29;20425;-65
2021/08/25 06:46:53;;;;;;;15.65;9.95;;;;;;;25.47;100.00;100843.34;4868539;29;20028;-66
2021/08/25 06:49:39;;;;;;;15.77;10.40;;;;;;;25.21;100.00;100847.09;4868086;29;20462;-66
2021/08/25 06:52:25;;;;;;;18.17;10.75;;;;;;;25.11;100.00;100841.56;4881105;29;20093;-66
2021/08/25 06:55:10;;;;;;;17.40;10.70;;;;;;;25.50;100.00;100840.41;4881128;29;20037;-66
2021/08/25 06:57:56;;;;;;;13.27;9.88;;;;;;;25.99;100.00;100841.84;4881446;29;20044;-66
2021/08/25 07:00:42;;;;;;;15.98;10.50;;;;;;;26.40;100.00;100828.66;4881030;29;20044;-66
2021/08/25 07:03:28;;;;;;;15.90;10.70;;;;;;;26.28;100.00;100828.81;4880988;29;20411;-66
2021/08/25 07:06:14;;;;;;;16.40;10.23;;;;;;;26.58;100.00;100835.25;4867512;29;20024;-66
2021/08/25 07:08:59;;;;;;;13.43;10.40;;;;;;;26.47;100.00;100832.56;4881864;29;20029;-66
2021/08/25 07:11:45;;;;;;;12.63;10.90;;;;;;;26.25;100.00;100837.09;4880506;29;20033;-65
2021/08/25 07:14:31;;;;;;;14.50;10.90;;;;;;;26.40;100.00;100839.41;4868008;29;20097;-66
2021/08/25 07:17:17;;;;;;;12.15;10.15;;;;;;;25.77;100.00;100839.13;4880639;29;20033;-66
2021/08/25 07:20:03;;;;;;;16.75;10.60;;;;;;;25.96;100.00;100849.31;4881150;29;20039;-66
2021/08/25 07:22:49;;;;;;;16.38;10.57;;;;;;;26.31;100.00;100848.19;4881364;29;20093;-66
2021/08/25 07:25:36;;;;;;;12.65;10.13;;;;;;;26.86;100.00;100844.59;4869648;29;20060;-67
2021/08/25 07:28:21;;;;;;;12.40;9.73;;;;;;;27.04;99.76;100849.28;4868921;29;20075;-67
2021/08/25 07:31:07;;;;;;;15.23;10.13;;;;;;;27.08;100.00;100850.75;4883436;29;20119;-66
2021/08/25 07:33:53;;;;;;;14.48;10.30;;;;;;;27.02;100.00;100848.59;4881585;29;20025;-69
2021/08/25 07:36:42;;;;;;;13.82;10.68;;;;;;;27.09;100.00;100849.75;4880778;29;20033;-68
2021/08/25 07:39:27;;;;;;;17.65;11.02;;;;;;;27.23;96.94;100854.00;4882284;29;20075;-68
2021/08/25 07:42:13;;;;;;;13.95;10.80;;;;;;;27.14;98.49;100861.00;4880942;29;20033;-66
2021/08/25 07:44:59;;;;;;;16.15;10.27;;;;;;;27.33;96.68;100863.88;4868398;29;20112;-67
2021/08/25 07:47:46;;;;;;;20.15;11.07;;;;;;;27.30;97.71;100865.97;4881324;29;20029;-66
2021/08/25 07:50:34;;;;;;;14.82;10.98;;;;;;;27.32;96.66;100866.69;4880342;29;20097;-67
2021/08/25 07:53:20;;;;;;;17.50;10.93;;;;;;;27.65;95.27;100868.38;4867527;29;20372;-66
2021/08/25 07:56:06;;;;;;;15.07;11.07;;;;;;;27.61;96.35;100862.41;4880445;29;20029;-66
2021/08/25 07:58:52;;;;;;;16.23;11.07;;;;;;;28.10;92.08;100859.88;4881165;29;20071;-68
2021/08/25 08:01:38;;;;;;;13.50;10.85;;;;;;;27.71;93.82;100855.22;4880369;29;20039;-68
2021/08/25 08:04:24;;;;;;;29.90;12.20;;;;;;;28.13;91.05;100856.06;4880716;29;20033;-67
2021/08/25 08:07:10;;;;;;;14.25;11.52;;;;;;;28.45;89.45;100854.94;4880249;29;20570;-67
2021/08/25 08:09:56;;;;;;;17.25;11.00;;;;;;;28.04;92.33;100852.31;4879827;29;20443;-66
2021/08/25 08:12:41;;;;;;;13.10;10.90;;;;;;;28.83;87.65;100846.94;4880034;29;20423;-66
2021/08/25 08:15:29;;;;;;;16.73;11.05;;;;;;;29.22;85.32;100845.16;4880153;29;20025;-66
2021/08/25 08:18:27;;;;;;;18.27;10.98;;;;;;;29.10;83.59;100846.28;4879994;29;20041;-65
2021/08/25 08:21:13;;;;;;;17.13;10.57;;;;;;;29.21;83.42;100847.00;4880757;29;20097;-66
2021/08/25 08:23:59;;;;;;;14.00;10.63;;;;;;;28.89;83.13;100843.69;4883459;29;20436;-66
2021/08/25 08:26:45;;;;;;;16.65;10.77;;;;;;;29.07;83.33;100843.88;4884951;29;20037;-67
2021/08/25 08:29:31;;;;;;;15.85;9.68;;;;;;;30.09;77.65;100842.19;4884250;29;20422;-66
2021/08/25 08:32:16;;;;;;;18.30;11.18;;;;;;;30.16;78.83;100846.03;4883534;29;20032;-66
2021/08/25 08:35:03;;;;;;;13.70;9.82;;;;;;;30.38;73.29;100835.66;4883959;29;20020;-66
2021/08/25 08:37:49;;;;;;;13.10;10.00;;;;;;;30.53;71.32;100834.16;4883475;29;20431;-66
2021/08/25 08:40:35;;;;;;;18.63;10.88;;;;;;;30.60;71.49;100839.81;4883985;29;20040;-67
2021/08/25 08:43:21;;;;;;;19.02;10.65;;;;;;;30.63;71.48;100837.69;4883535;29;20082;-66
2021/08/25 08:46:07;;;;;;;19.80;10.77;;;;;;;31.12;69.07;100830.94;4883617;29;20033;-66
2021/08/25 08:48:53;;;;;;;21.98;11.05;;;;;;;30.58;71.00;100831.03;4883394;29;20040;-66
2021/08/25 08:51:40;;;;;;;22.58;10.55;;;;;;;31.00;68.54;100834.88;4883342;29;20033;-66
2021/08/25 08:54:26;;;;;;;26.42;12.23;;;;;;;31.05;67.99;100833.41;4883419;29;20105;-66
2021/08/25 08:57:11;;;;;;;36.20;13.05;;;;;;;31.29;67.88;100830.09;4883047;29;20032;-67
2021/08/25 09:00:00;;;;;;;29.42;13.13;;;;;;;31.93;65.81;100829.78;4883118;29;20033;-66
2021/08/25 09:02:47;;;;;;;34.35;13.32;;;;;;;31.49;64.63;100826.19;4883267;29;20111;-66
2021/08/25 09:05:34;;;;;;;25.45;12.25;;;;;;;31.54;64.38;100829.28;4883024;29;20067;-65
2021/08/25 09:08:27;;;;;;;22.70;11.32;;;;;;;31.71;63.11;100823.00;4882833;29;20025;-65
2021/08/25 09:11:15;;;;;;;22.17;11.60;;;;;;;31.34;65.23;100820.50;4883562;29;20033;-66
2021/08/25 09:14:10;;;;;;;39.92;14.43;;;;;;;30.83;68.21;100811.38;4882739;29;20040;-66
2021/08/25 09:17:02;;;;;;;34.25;12.95;;;;;;;31.14;66.35;100810.81;4870201;29;20033;-66
2021/08/25 09:19:48;;;;;;;35.80;12.80;;;;;;;30.77;68.17;100806.56;4869497;29;20414;-66
2021/08/25 09:22:34;;;;;;;27.80;11.35;;;;;;;30.60;70.88;100810.06;4883144;29;20077;-66
2021/08/25 09:25:31;;;;;;;21.33;10.15;;;;;;;31.02;68.50;100806.66;4882140;29;20474;-66
2021/08/25 09:28:24;;;;;;;16.10;9.60;;;;;;;31.00;68.59;100796.97;4882632;29;20458;-66
2021/08/25 09:31:13;;;;;;;15.70;8.90;;;;;;;31.07;67.72;100800.78;4882548;29;20033;-67
2021/08/25 09:33:59;;;;;;;12.13;9.05;;;;;;;30.76;66.75;100805.72;4881889;29;20097;-66
2021/08/25 09:36:46;;;;;;;9.55;8.15;;;;;;;30.63;67.68;100797.09;4882532;29;20112;-66
2021/08/25 09:39:32;;;;;;;15.88;8.90;;;;;;;30.74;67.49;100787.94;4884614;29;20096;-66
2021/08/25 09:42:20;;;;;;;11.32;8.43;;;;;;;30.49;67.37;100775.09;4868898;29;20029;-66
2021/08/25 09:45:08;;;;;;;16.52;8.82;;;;;;;31.10;65.90;100766.13;4883256;29;20045;-66
2021/08/25 09:47:56;;;;;;;12.65;8.95;;;;;;;31.38;64.34;100756.06;4870668;29;20029;-66
2021/08/25 09:50:56;;;;;;;13.45;8.57;;;;;;;31.24;65.04;100749.34;4884291;29;20343;-66
2021/08/25 09:53:44;;;;;;;13.02;8.27;;;;;;;31.87;60.92;100740.97;4882717;29;20163;-66
2021/08/25 09:56:32;;;;;;;11.20;7.78;;;;;;;32.36;59.27;100732.88;4883213;29;20477;-67
2021/08/25 09:59:38;;;;;;;8.88;7.32;;;;;;;32.05;60.60;100723.59;4870419;29;20457;-68
2021/08/25 10:02:24;;;;;;;14.52;7.72;;;;;;;31.52;61.57;100720.25;4882529;29;20036;-68
2021/08/25 10:05:11;;;;;;;12.23;7.38;;;;;;;31.90;61.56;100718.97;4883660;29;20040;-66
2021/08/25 10:07:57;;;;;;;10.93;7.32;;;;;;;31.69;61.22;100707.66;4882476;29;20033;-66
2021/08/25 10:10:45;;;;;;;10.10;7.35;;;;;;;31.94;60.56;100706.78;4870586;29;20029;-66
2021/08/25 10:13:34;;;;;;;9.25;7.30;;;;;;;32.19;58.88;100713.97;4881744;29;20041;-65
2021/08/25 10:16:40;;;;;;;12.57;7.72;;;;;;;32.14;60.46;100708.22;4869996;29;20041;-67
2021/08/25 10:19:36;;;;;;;11.27;7.05;;;;;;;32.29;57.91;100718.28;4881868;29;20057;-66
2021/08/25 10:22:27;;;;;;;9.88;6.72;;;;;;;31.68;59.15;100708.63;4883677;29;20029;-66
2021/08/25 10:25:13;;;;;;;9.52;6.30;;;;;;;31.59;57.77;100715.03;4880274;29;20514;-66
2021/08/25 10:28:08;;;;;;;8.30;6.65;;;;;;;31.83;58.08;100709.78;4882544;29;20355;-67
2021/08/25 10:30:55;;;;;;;9.20;6.55;;;;;;;32.25;57.76;100710.59;4883351;29;20040;-66
2021/08/25 10:34:10;;;;;;;8.93;6.85;;;;;;;32.22;56.77;100713.66;4882507;29;20180;-67
2021/08/25 10:37:11;;;;;;;9.57;7.68;;;;;;;32.10;55.99;100709.56;4881747;29;20021;-66
2021/08/25 10:39:59;;;;;;;12.98;6.53;;;;;;;32.49;54.52;100708.81;4882524;29;20036;-66
2021/08/25 10:42:49;;;;;;;12.23;6.88;;;;;;;32.08;54.25;100701.56;4882159;29;20092;-66
2021/08/25 10:45:44;;;;;;;9.50;6.40;;;;;;;32.55;53.36;100689.19;4881939;29;20378;-66
2021/08/25 10:48:46;;;;;;;10.05;6.75;;;;;;;32.94;50.49;100678.53;4881858;29;20032;-67
2021/08/25 10:51:38;;;;;;;14.40;6.85;;;;;;;31.98;51.91;100673.72;4883727;29;20029;-66
2021/08/25 10:54:23;;;;;;;11.60;6.57;;;;;;;32.54;52.28;100675.78;4881807;29;20068;-66
2021/08/25 10:57:11;;;;;;;8.63;6.07;;;;;;;32.60;50.65;100673.22;4882199;29;20120;-67
2021/08/25 11:00:08;;;;;;;9.35;6.00;;;;;;;32.94;49.64;100670.41;4881859;29;20123;-66
2021/08/25 11:02:54;;;;;;;12.07;6.43;;;;;;;32.60;51.40;100669.66;4882782;29;20108;-67
2021/08/25 11:05:39;;;;;;;6.50;5.65;;;;;;;32.54;49.85;100665.75;4882660;29;20033;-67
2021/08/25 11:08:25;;;;;;;9.85;6.07;;;;;;;32.46;49.68;100662.22;4881788;29;20055;-68
2021/08/25 11:11:14;;;;;;;6.82;5.57;;;;;;;32.86;46.70;100662.25;4885270;29;20063;-69
2021/08/25 11:14:05;;;;;;;11.18;6.32;;;;;;;32.98;46.88;100653.56;4884068;29;20043;-69
2021/08/25 11:16:55;;;;;;;9.35;6.50;;;;;;;33.16;45.55;100651.53;4882767;29;20043;-66
2021/08/25 11:19:52;;;;;;;10.20;6.82;;;;;;;33.27;46.84;100653.03;4883033;29;20115;-67
2021/08/25 11:22:40;;;;;;;8.40;6.00;;;;;;;33.05;46.17;100645.59;4883234;29;20043;-66
2021/08/25 11:25:25;;;;;;;10.48;5.72;;;;;;;33.10;45.52;100645.94;4882474;29;20056;-65
2021/08/25 11:28:11;;;;;;;9.27;6.15;;;;;;;33.15;45.43;100640.81;4883336;29;20450;-69
2021/08/25 11:30:57;;;;;;;11.82;5.90;;;;;;;33.61;42.84;100640.88;4881843;29;20041;-68
2021/08/25 11:33:45;;;;;;;8.88;5.60;;;;;;;33.49;41.68;100638.72;4882164;29;20037;-68
2021/08/25 11:36:30;;;;;;;13.07;6.40;;;;;;;33.71;42.31;100633.34;4882961;29;20486;-67
2021/08/25 11:39:16;;;;;;;9.48;5.75;;;;;;;33.65;41.57;100633.22;4883112;29;20037;-66
2021/08/25 11:42:02;;;;;;;6.97;5.50;;;;;;;32.87;43.33;100625.94;4882199;29;20373;-66
2021/08/25 11:44:48;;;;;;;11.18;6.07;;;;;;;33.55;42.50;100617.09;4882091;29;20475;-66
2021/08/25 11:47:33;;;;;;;8.32;5.90;;;;;;;33.97;40.03;100617.63;4882269;29;20073;-67
2021/08/25 11:50:22;;;;;;;10.55;5.40;;;;;;;34.08;40.26;100627.25;4882026;29;20021;-67
2021/08/25 11:53:14;;;;;;;7.97;5.50;;;;;;;34.47;39.47;100625.31;4881720;29;20480;-67
2021/08/25 11:56:03;;;;;;;10.55;5.65;;;;;;;34.36;39.70;100620.28;4881710;29;20048;-68
2021/08/25 11:58:54;;;;;;;7.60;5.38;;;;;;;34.16;39.35;100611.69;4882429;29;20039;-68
2021/08/25 12:01:40;;;;;;;8.02;5.10;;;;;;;34.34;39.68;100617.75;4882716;29;20068;-68
2021/08/25 12:04:29;;;;;;;12.48;5.65;;;;;;;34.65;38.88;100609.50;4882578;29;20124;-67
2021/08/25 12:07:17;;;;;;;7.32;5.13;;;;;;;34.28;38.56;100598.56;4881920;29;20056;-66
2021/08/25 12:10:19;;;;;;;7.03;5.15;;;;;;;34.08;38.44;100606.31;4881907;29;20115;-67
2021/08/25 12:13:05;;;;;;;7.72;5.50;;;;;;;34.44;38.48;100595.72;4881094;29;20128;-66
2021/08/25 12:15:54;;;;;;;9.52;5.55;;;;;;;34.62;38.09;100594.38;4882155;29;20343;-65
2021/08/25 12:18:54;;;;;;;8.65;4.93;;;;;;;34.05;37.77;100587.66;4880596;29;20029;-66
2021/08/25 12:21:40;;;;;;;8.68;5.50;;;;;;;34.04;38.40;100583.22;4882852;29;20040;-66
2021/08/25 12:24:46;;;;;;;7.13;4.90;;;;;;;34.08;37.96;100575.56;4881419;29;20041;-66
2021/08/25 12:27:45;;;;;;;8.52;5.38;;;;;;;34.10;38.13;100576.22;4881738;29;20037;-66
2021/08/25 12:30:42;;;;;;;9.60;5.10;;;;;;;34.55;37.24;100571.63;4880556;29;20029;-66
2021/08/25 12:33:28;;;;;;;9.00;4.75;;;;;;;34.56;36.65;100573.31;4881279;29;20029;-67
2021/08/25 12:36:27;;;;;;;6.70;5.38;;;;;;;34.45;36.64;100573.78;4879467;29;20113;-67
2021/08/25 12:39:15;;;;;;;8.77;5.03;;;;;;;34.77;37.04;100569.91;4880231;29;20051;-67
2021/08/25 12:42:01;;;;;;;6.88;4.82;;;;;;;34.72;36.19;100569.63;4867409;29;20236;-68
2021/08/25 12:45:22;;;;;;;5.78;4.97;;;;;;;34.65;36.64;100571.38;4881119;29;20088;-67
2021/08/25 12:48:14;;;;;;;11.30;4.97;;;;;;;34.44;35.72;100572.06;4880255;29;20033;-66